createdAt,value
2022-12-28T00:01:53.426Z,79.21
2022-12-28T00:04:21.483Z,79.86
2022-12-28T00:06:50.769Z,79.34
2022-12-28T00:09:20.413Z,79.41
2022-12-28T00:11:48.300Z,79.06
2022-12-28T00:14:16.119Z,79.13
2022-12-28T00:16:44.952Z,79.22
2022-12-28T00:19:14.897Z,79.21
2022-12-28T00:21:43.218Z,79.38
2022-12-28T00:24:18.844Z,79.54
2022-12-28T00:26:48.087Z,79.57
2022-12-28T00:29:16.365Z,79.24
2022-12-28T00:31:45.696Z,79.96
2022-12-28T00:34:13.703Z,79.91
2022-12-28T00:37:09.902Z,79.40
2022-12-28T00:39:29.542Z,79.80
2022-12-28T00:41:58.815Z,79.19
2022-12-28T00:44:26.785Z,79.44
2022-12-28T00:46:54.636Z,79.52
2022-12-28T00:49:22.697Z,79.56
2022-12-28T00:51:50.489Z,79.79
2022-12-28T00:54:18.392Z,79.53
2022-12-28T00:56:46.451Z,79.52
2022-12-28T00:59:15.679Z,79.84
2022-12-28T01:01:43.637Z,79.58
2022-12-28T01:04:11.622Z,79.64
2022-12-28T01:06:40.064Z,79.63
2022-12-28T01:09:08.087Z,79.99
2022-12-28T01:11:36.050Z,79.94
2022-12-28T01:14:03.876Z,79.92
2022-12-28T01:16:35.780Z,79.83
2022-12-28T01:19:05.331Z,80.30
2022-12-28T01:21:34.359Z,79.87
2022-12-28T01:24:04.347Z,79.92
2022-12-28T01:26:32.718Z,80.01
2022-12-28T01:29:01.032Z,79.80
2022-12-28T01:31:29.202Z,79.81
2022-12-28T01:33:58.562Z,80.15
2022-12-28T01:36:31.513Z,79.81
2022-12-28T01:39:00.746Z,79.74
2022-12-28T01:41:29.866Z,79.40
2022-12-28T01:44:33.793Z,79.16
2022-12-28T01:47:05.907Z,79.48
2022-12-28T01:49:40.604Z,79.54
2022-12-28T01:52:13.855Z,79.30
2022-12-28T01:54:46.521Z,79.26
2022-12-28T01:57:16.355Z,79.22
2022-12-28T01:59:51.713Z,79.47
2022-12-28T02:02:20.275Z,79.18
2022-12-28T02:04:50.449Z,79.29
2022-12-28T02:07:31.465Z,79.25
2022-12-28T02:10:40.863Z,79.56
2022-12-28T02:12:48.017Z,79.56
2022-12-28T02:15:22.769Z,79.26
2022-12-28T02:17:51.746Z,79.19
2022-12-28T02:20:21.211Z,79.49
2022-12-28T02:23:13.765Z,79.21
2022-12-28T02:26:25.391Z,79.14
2022-12-28T02:29:19.743Z,78.95
2022-12-28T02:31:53.933Z,79.16
2022-12-28T02:34:28.274Z,79.38
2022-12-28T02:37:02.573Z,79.05
2022-12-28T02:39:35.336Z,78.82
2022-12-28T02:42:05.469Z,79.06
2022-12-28T02:44:54.327Z,78.77
2022-12-28T02:47:36.148Z,78.51
2022-12-28T02:50:07.620Z,78.38
2022-12-28T02:53:19.962Z,78.95
2022-12-28T02:56:08.391Z,78.68
2022-12-28T02:58:58.489Z,78.47
2022-12-28T03:01:52.447Z,78.83
2022-12-28T03:04:29.363Z,79.30
2022-12-28T03:07:36.701Z,79.16
2022-12-28T03:10:15.690Z,79.31
2022-12-28T03:12:50.171Z,79.40
2022-12-28T03:15:34.547Z,79.56
2022-12-28T03:18:28.586Z,79.48
2022-12-28T03:21:17.935Z,79.45
2022-12-28T03:24:05.389Z,79.73
2022-12-28T03:26:53.370Z,79.72
2022-12-28T03:29:42.631Z,79.56
2022-12-28T03:32:11.373Z,79.71
2022-12-28T03:34:40.837Z,79.58
2022-12-28T03:37:18.599Z,79.68
2022-12-28T03:39:52.387Z,79.90
2022-12-28T03:42:45.509Z,79.78
2022-12-28T03:45:44.268Z,79.51
2022-12-28T03:48:08.442Z,79.61
2022-12-28T03:50:40.700Z,79.95
2022-12-28T03:53:09.300Z,80.16
2022-12-28T03:55:37.963Z,80.08
2022-12-28T03:58:06.280Z,80.26
2022-12-28T04:00:34.438Z,80.01
2022-12-28T04:03:02.417Z,80.20
2022-12-28T04:05:30.247Z,79.93
2022-12-28T04:07:59.631Z,79.85
2022-12-28T04:10:27.443Z,79.91
2022-12-28T04:12:56.865Z,80.01
2022-12-28T04:15:24.883Z,79.97
2022-12-28T04:17:52.711Z,79.95
2022-12-28T04:20:20.604Z,80.17
2022-12-28T04:22:48.558Z,80.02
2022-12-28T04:25:17.741Z,80.28
2022-12-28T04:27:45.583Z,80.26
2022-12-28T04:30:13.596Z,80.43
2022-12-28T04:32:41.392Z,80.42
2022-12-28T04:35:10.046Z,80.73
2022-12-28T04:37:38.132Z,80.84
2022-12-28T04:40:07.000Z,80.82
2022-12-28T04:42:36.178Z,80.76
2022-12-28T04:45:04.503Z,81.00
2022-12-28T04:47:32.337Z,80.97
2022-12-28T04:50:00.241Z,80.93
2022-12-28T04:52:28.155Z,81.04
2022-12-28T04:54:55.974Z,80.81
2022-12-28T04:57:23.793Z,80.97
2022-12-28T04:59:53.069Z,81.15
2022-12-28T05:02:21.083Z,81.32
2022-12-28T05:04:48.914Z,81.04
2022-12-28T05:07:16.807Z,81.47
2022-12-28T05:09:44.616Z,81.52
2022-12-28T05:12:12.458Z,81.42
2022-12-28T05:14:42.263Z,81.87
2022-12-28T05:17:11.479Z,81.58
2022-12-28T05:19:39.336Z,81.92
2022-12-28T05:22:11.848Z,81.88
2022-12-28T05:24:39.778Z,81.87
2022-12-28T05:27:07.759Z,82.03
2022-12-28T05:29:35.655Z,82.17
2022-12-28T05:32:03.486Z,82.40
2022-12-28T05:34:32.774Z,82.54
2022-12-28T05:37:00.810Z,82.82
2022-12-28T05:39:28.640Z,82.69
2022-12-28T05:42:00.116Z,82.95
2022-12-28T05:44:28.105Z,82.69
2022-12-28T05:46:56.040Z,82.82
2022-12-28T05:49:24.042Z,82.65
2022-12-28T05:51:53.336Z,83.05
2022-12-28T05:54:21.580Z,82.79
2022-12-28T05:56:51.975Z,83.01
2022-12-28T05:59:19.842Z,82.76
2022-12-28T06:01:47.766Z,82.82
2022-12-28T06:04:18.505Z,83.00
2022-12-28T06:06:47.433Z,82.96
2022-12-28T06:09:16.975Z,83.13
2022-12-28T06:11:45.970Z,83.37
2022-12-28T06:14:13.989Z,83.55
2022-12-28T06:16:43.474Z,83.36
2022-12-28T06:19:14.843Z,83.57
2022-12-28T06:21:43.650Z,83.71
2022-12-28T06:24:13.861Z,83.79
2022-12-28T06:26:43.122Z,83.62
2022-12-28T06:29:11.429Z,83.52
2022-12-28T06:31:41.568Z,83.79
2022-12-28T06:34:10.546Z,84.00
2022-12-28T06:36:40.561Z,84.22
2022-12-28T06:39:10.739Z,84.13
2022-12-28T06:41:39.301Z,84.24
2022-12-28T06:44:09.646Z,84.04
2022-12-28T06:46:38.361Z,84.03
2022-12-28T06:49:06.455Z,84.12
2022-12-28T06:51:36.432Z,84.36
2022-12-28T06:54:04.513Z,84.20
2022-12-28T06:56:34.750Z,84.16
2022-12-28T06:59:04.271Z,84.48
2022-12-28T07:01:35.965Z,84.33
2022-12-28T07:04:05.614Z,84.27
2022-12-28T07:06:38.112Z,84.65
2022-12-28T07:09:08.169Z,84.56
2022-12-28T07:11:36.345Z,85.04
2022-12-28T07:14:04.855Z,85.05
2022-12-28T07:19:07.124Z,85.07
2022-12-28T07:21:36.941Z,85.57
2022-12-28T07:24:06.095Z,85.41
2022-12-28T07:26:36.610Z,85.65
2022-12-28T07:29:06.204Z,85.44
2022-12-28T07:31:43.673Z,85.58
2022-12-28T07:34:14.368Z,85.67
2022-12-28T07:36:42.491Z,85.65
2022-12-28T07:39:10.569Z,85.83
2022-12-28T07:41:38.671Z,85.81
2022-12-28T07:44:07.380Z,86.22
2022-12-28T07:46:38.789Z,85.73
2022-12-28T07:49:07.780Z,86.18
2022-12-28T07:51:39.025Z,86.20
2022-12-28T07:54:07.842Z,86.40
2022-12-28T07:59:04.802Z,86.33
2022-12-28T08:01:34.891Z,86.47
2022-12-28T08:04:04.645Z,86.52
2022-12-28T08:06:36.764Z,86.73
2022-12-28T08:09:06.543Z,86.76
2022-12-28T08:11:36.439Z,86.98
2022-12-28T08:14:05.437Z,87.05
2022-12-28T08:16:35.198Z,87.06
2022-12-28T08:19:03.473Z,87.28
2022-12-28T08:21:33.788Z,86.88
2022-12-28T08:24:03.612Z,87.43
2022-12-28T08:26:33.126Z,87.40
2022-12-28T08:29:04.958Z,87.38
2022-12-28T08:31:35.167Z,87.58
2022-12-28T08:34:04.179Z,87.66
2022-12-28T08:36:32.558Z,87.83
2022-12-28T08:39:03.219Z,87.68
2022-12-28T08:41:31.820Z,87.80
2022-12-28T08:43:59.970Z,88.05
2022-12-28T08:46:30.045Z,88.08
2022-12-28T08:48:59.601Z,88.36
2022-12-28T08:51:32.614Z,88.38
2022-12-28T08:54:02.547Z,88.69
2022-12-28T08:56:32.341Z,88.73
2022-12-28T08:59:00.655Z,88.65
2022-12-28T09:01:30.227Z,89.18
2022-12-28T09:04:00.450Z,89.20
2022-12-28T09:06:33.070Z,89.16
2022-12-28T09:09:06.107Z,89.53
2022-12-28T09:11:34.694Z,89.25
2022-12-28T09:14:03.114Z,89.65
2022-12-28T09:16:31.252Z,89.63
2022-12-28T09:19:01.508Z,89.65
2022-12-28T09:21:31.495Z,90.08
2022-12-28T09:23:59.335Z,90.03
2022-12-28T09:26:31.197Z,90.11
2022-12-28T09:29:00.728Z,89.92
2022-12-28T09:31:30.322Z,90.18
2022-12-28T09:36:52.510Z,90.02
2022-12-28T09:39:24.808Z,90.26
2022-12-28T09:41:57.974Z,90.01
2022-12-28T09:44:39.810Z,89.92
2022-12-28T09:47:17.501Z,90.16
2022-12-28T09:49:53.817Z,89.78
2022-12-28T09:52:30.353Z,89.88
2022-12-28T09:55:06.428Z,89.79
2022-12-28T09:57:39.615Z,89.73
2022-12-28T10:00:17.001Z,89.81
2022-12-28T10:02:48.533Z,89.75
2022-12-28T10:05:16.808Z,89.82
2022-12-28T10:07:44.761Z,89.92
2022-12-28T10:10:17.262Z,89.89
2022-12-28T10:12:47.126Z,90.16
2022-12-28T10:15:16.736Z,89.91
2022-12-28T10:17:45.232Z,90.09
2022-12-28T10:20:17.152Z,90.06
2022-12-28T10:22:50.267Z,90.06
2022-12-28T10:25:20.867Z,90.21
2022-12-28T10:27:50.566Z,89.93
2022-12-28T10:30:21.474Z,89.89
2022-12-28T10:32:51.740Z,89.98
2022-12-28T10:35:27.766Z,90.08
2022-12-28T10:38:04.232Z,90.00
2022-12-28T10:40:35.063Z,90.00
2022-12-28T10:43:10.851Z,89.88
2022-12-28T10:45:47.344Z,90.08
2022-12-28T10:48:19.112Z,90.10
2022-12-28T10:50:52.916Z,90.18
2022-12-28T10:53:26.769Z,89.97
2022-12-28T10:56:24.459Z,90.30
2022-12-28T10:58:54.756Z,90.22
2022-12-28T11:01:26.965Z,90.35
2022-12-28T11:04:05.612Z,90.21
2022-12-28T11:06:35.721Z,90.23
2022-12-28T11:09:17.719Z,90.47
2022-12-28T11:11:47.332Z,90.44
2022-12-28T11:14:27.980Z,90.46
2022-12-28T11:16:56.206Z,90.51
2022-12-28T11:19:25.662Z,90.66
2022-12-28T11:21:53.871Z,90.63
2022-12-28T11:24:27.156Z,90.65
2022-12-28T11:26:55.289Z,90.72
2022-12-28T11:29:24.774Z,90.88
2022-12-28T11:32:01.009Z,90.97
2022-12-28T11:34:30.736Z,90.73
2022-12-28T11:36:59.724Z,90.56
2022-12-28T11:39:44.940Z,90.73
2022-12-28T11:42:38.924Z,90.52
2022-12-28T11:45:03.899Z,90.75
2022-12-28T11:47:36.515Z,90.76
2022-12-28T11:50:47.118Z,90.59
2022-12-28T11:53:48.627Z,90.66
2022-12-28T11:56:18.064Z,90.63
2022-12-28T11:58:48.830Z,90.76
2022-12-28T12:01:43.503Z,90.94
2022-12-28T12:04:46.283Z,90.35
2022-12-28T12:07:31.509Z,90.68
2022-12-28T12:10:28.579Z,90.68
2022-12-28T12:12:57.729Z,90.30
2022-12-28T12:15:41.660Z,90.19
2022-12-28T12:18:20.634Z,90.19
2022-12-28T12:20:54.712Z,90.15
2022-12-28T12:23:47.416Z,90.07
2022-12-28T12:26:28.147Z,90.09
2022-12-28T12:28:59.820Z,89.85
2022-12-28T12:31:32.154Z,89.69
2022-12-28T12:34:13.319Z,90.06
2022-12-28T12:37:18.143Z,89.89
2022-12-28T12:40:07.604Z,90.02
2022-12-28T12:42:44.637Z,90.00
2022-12-28T12:45:23.950Z,89.67
2022-12-28T12:48:19.104Z,89.80
2022-12-28T12:51:17.629Z,89.83
2022-12-28T12:53:59.375Z,89.81
2022-12-28T12:56:37.229Z,89.69
2022-12-28T12:59:33.373Z,89.63
2022-12-28T13:02:20.734Z,89.82
2022-12-28T13:04:49.279Z,89.81
2022-12-28T13:07:23.372Z,89.52
2022-12-28T13:09:54.451Z,89.57
2022-12-28T13:12:22.921Z,89.62
2022-12-28T13:14:58.151Z,89.51
2022-12-28T13:17:26.715Z,89.52
2022-12-28T13:20:09.394Z,89.22
2022-12-28T13:22:43.646Z,89.60
2022-12-28T13:25:24.544Z,89.21
2022-12-28T13:27:52.952Z,89.30
2022-12-28T13:30:22.504Z,89.23
2022-12-28T13:32:52.982Z,89.12
2022-12-28T13:35:22.859Z,89.11
2022-12-28T13:38:03.846Z,89.25
2022-12-28T13:40:33.177Z,89.03
2022-12-28T13:43:18.178Z,89.16
2022-12-28T13:45:50.927Z,89.33
2022-12-28T13:48:19.190Z,89.14
2022-12-28T13:50:47.389Z,89.43
2022-12-28T13:53:20.746Z,89.09
2022-12-28T13:55:52.631Z,89.35
2022-12-28T13:58:25.633Z,89.45
2022-12-28T14:00:56.522Z,89.52
2022-12-28T14:03:25.115Z,89.59
2022-12-28T14:05:55.889Z,89.60
2022-12-28T14:08:25.232Z,89.71
2022-12-28T14:10:53.718Z,89.63
2022-12-28T14:13:22.335Z,89.79
2022-12-28T14:15:51.002Z,90.03
2022-12-28T14:18:20.051Z,89.88
2022-12-28T14:20:49.313Z,89.79
2022-12-28T14:23:21.729Z,90.24
2022-12-28T14:25:52.497Z,90.24
2022-12-28T14:28:24.939Z,90.17
2022-12-28T14:30:54.676Z,90.24
2022-12-28T14:33:25.273Z,90.40
2022-12-28T14:35:56.273Z,90.77
2022-12-28T14:38:28.807Z,90.39
2022-12-28T14:41:00.574Z,90.88
2022-12-28T14:43:30.553Z,90.72
2022-12-28T14:46:16.529Z,90.63
2022-12-28T14:48:45.538Z,90.65
2022-12-28T14:51:28.591Z,90.86
2022-12-28T14:54:18.905Z,91.21
2022-12-28T14:56:53.311Z,90.60
2022-12-28T14:59:26.375Z,91.17
2022-12-28T15:01:54.505Z,91.31
2022-12-28T15:04:36.743Z,91.56
2022-12-28T15:07:05.660Z,91.58
2022-12-28T15:09:33.559Z,91.22
2022-12-28T15:12:17.758Z,91.70
2022-12-28T15:14:45.996Z,91.78
2022-12-28T15:17:14.741Z,91.93
2022-12-28T15:19:43.624Z,92.03
2022-12-28T15:22:11.648Z,92.18
2022-12-28T15:24:41.587Z,92.48
2022-12-28T15:27:09.466Z,92.66
2022-12-28T15:30:04.294Z,92.63
2022-12-28T15:32:26.558Z,92.90
2022-12-28T15:34:54.473Z,92.95
2022-12-28T15:37:22.346Z,93.10
2022-12-28T15:39:50.251Z,93.12
2022-12-28T15:42:18.193Z,93.05
2022-12-28T15:44:48.679Z,93.26
2022-12-28T15:47:16.565Z,93.56
2022-12-28T15:49:44.514Z,93.92
2022-12-28T15:52:12.389Z,93.94
2022-12-28T15:54:46.762Z,94.29
2022-12-28T15:57:15.837Z,94.49
2022-12-28T15:59:43.839Z,94.76
2022-12-28T16:02:13.492Z,94.87
2022-12-28T16:04:41.769Z,94.88
2022-12-28T16:07:09.821Z,94.94
2022-12-28T16:09:37.725Z,95.01
2022-12-28T16:12:06.060Z,95.30
2022-12-28T16:14:33.937Z,95.29
2022-12-28T16:17:01.816Z,95.38
2022-12-28T16:19:31.065Z,95.58
2022-12-28T16:21:58.909Z,95.74
2022-12-28T16:24:26.747Z,95.52
2022-12-28T16:26:54.776Z,95.85
2022-12-28T16:29:22.965Z,96.14
2022-12-28T16:31:52.424Z,96.23
2022-12-28T16:34:20.471Z,96.08
2022-12-28T16:36:49.982Z,96.14
2022-12-28T16:39:20.108Z,96.63
2022-12-28T16:41:48.055Z,96.69
2022-12-28T16:44:17.815Z,96.70
2022-12-28T16:46:45.870Z,96.49
2022-12-28T16:49:15.000Z,96.65
2022-12-28T16:51:46.285Z,96.93
2022-12-28T16:54:17.732Z,96.59
2022-12-28T16:56:45.871Z,96.90
2022-12-28T16:59:16.363Z,96.90
2022-12-28T17:01:44.950Z,97.18
2022-12-28T17:04:13.566Z,97.23
2022-12-28T17:06:42.975Z,97.23
2022-12-28T17:09:11.311Z,97.47
2022-12-28T17:11:40.615Z,97.48
2022-12-28T17:14:11.477Z,97.40
2022-12-28T17:16:40.183Z,97.75
2022-12-28T17:19:08.179Z,97.95
2022-12-28T17:21:36.145Z,97.49
2022-12-28T17:24:04.598Z,97.57
2022-12-28T17:26:32.574Z,97.76
2022-12-28T17:29:01.973Z,98.05
2022-12-28T17:31:30.008Z,98.00
2022-12-28T17:33:59.385Z,98.31
2022-12-28T17:36:27.554Z,98.10
2022-12-28T17:38:55.474Z,98.20
2022-12-28T17:41:25.610Z,98.47
2022-12-28T17:43:55.101Z,98.77
2022-12-28T17:46:26.134Z,98.24
2022-12-28T17:48:54.474Z,98.64
2022-12-28T17:51:23.889Z,99.00
2022-12-28T17:53:51.933Z,98.93
2022-12-28T17:56:19.753Z,99.28
2022-12-28T17:58:48.215Z,99.17
2022-12-28T18:01:16.370Z,98.92
2022-12-28T18:03:45.883Z,99.54
2022-12-28T18:06:14.006Z,99.42
2022-12-28T18:08:42.022Z,99.81
2022-12-28T18:11:11.341Z,100.00
2022-12-28T18:13:39.601Z,99.66
2022-12-28T18:16:09.237Z,100.00
2022-12-28T18:18:37.403Z,100.00
2022-12-28T18:21:09.487Z,100.00
2022-12-28T18:23:37.673Z,100.00
2022-12-28T18:26:07.566Z,100.00
2022-12-28T18:28:36.687Z,100.00
2022-12-28T18:31:05.991Z,100.00
2022-12-28T18:33:34.795Z,100.00
2022-12-28T18:36:03.820Z,100.00
2022-12-28T18:38:33.470Z,100.00
2022-12-28T18:41:01.314Z,100.00
2022-12-28T18:43:29.495Z,100.00
2022-12-28T18:45:59.329Z,100.00
2022-12-28T18:48:27.937Z,100.00
2022-12-28T18:50:57.102Z,100.00
2022-12-28T18:53:26.097Z,100.00
2022-12-28T18:55:59.657Z,100.00
2022-12-28T18:58:28.528Z,100.00
2022-12-28T19:01:03.327Z,100.00
2022-12-28T19:03:31.519Z,100.00
2022-12-28T19:06:02.989Z,100.00
2022-12-28T19:08:31.997Z,100.00
2022-12-28T19:11:02.273Z,100.00
2022-12-28T19:13:35.189Z,100.00
2022-12-28T19:16:04.487Z,100.00
2022-12-28T19:18:32.597Z,100.00
2022-12-28T19:21:16.517Z,100.00
2022-12-28T19:23:44.524Z,100.00
2022-12-28T19:26:13.854Z,100.00
2022-12-28T19:28:41.739Z,100.00
2022-12-28T19:31:09.717Z,100.00
2022-12-28T19:33:37.856Z,100.00
2022-12-28T19:36:06.239Z,100.00
2022-12-28T19:38:34.188Z,100.00
2022-12-28T19:41:06.102Z,100.00
2022-12-28T19:43:35.597Z,100.00
2022-12-28T19:46:05.340Z,100.00
2022-12-28T19:48:33.258Z,100.00
2022-12-28T19:51:01.504Z,100.00
2022-12-28T19:53:30.351Z,100.00
2022-12-28T19:55:59.563Z,100.00
2022-12-28T19:58:27.384Z,100.00
2022-12-28T20:00:56.762Z,100.00
2022-12-28T20:03:24.899Z,100.00
2022-12-28T20:05:52.834Z,100.00
2022-12-28T20:08:20.684Z,100.00
2022-12-28T20:10:56.452Z,100.00
2022-12-28T20:13:24.399Z,100.00
2022-12-28T20:15:52.477Z,100.00
2022-12-28T20:18:21.735Z,100.00
2022-12-28T20:21:17.952Z,100.00
2022-12-28T20:23:37.916Z,100.00
2022-12-28T20:26:06.006Z,100.00
2022-12-28T20:28:34.630Z,100.00
2022-12-28T20:31:02.857Z,100.00
2022-12-28T20:33:33.558Z,100.00
2022-12-28T20:36:03.326Z,100.00
2022-12-28T20:38:31.746Z,100.00
2022-12-28T20:41:04.141Z,100.00
2022-12-28T20:43:31.725Z,100.00
2022-12-28T20:46:00.219Z,100.00
2022-12-28T20:48:28.520Z,100.00
2022-12-28T20:50:59.372Z,100.00
2022-12-28T20:53:28.012Z,100.00
2022-12-28T20:55:55.937Z,100.00
2022-12-28T20:58:23.971Z,100.00
2022-12-28T21:00:51.844Z,100.00
2022-12-28T21:03:19.763Z,100.00
2022-12-28T21:05:47.640Z,100.00
2022-12-28T21:08:16.864Z,100.00
2022-12-28T21:10:48.099Z,100.00
2022-12-28T21:13:16.089Z,100.00
2022-12-28T21:15:44.546Z,100.00
2022-12-28T21:18:12.541Z,100.00
2022-12-28T21:20:46.002Z,100.00
2022-12-28T21:23:14.008Z,100.00
2022-12-28T21:25:43.225Z,100.00
2022-12-28T21:28:12.269Z,100.00
2022-12-28T21:30:40.262Z,100.00
2022-12-28T21:33:08.067Z,100.00
2022-12-28T21:35:36.115Z,100.00
2022-12-28T21:38:06.151Z,100.00
2022-12-28T21:40:33.958Z,100.00
2022-12-28T21:43:03.234Z,100.00
2022-12-28T21:45:31.222Z,100.00
2022-12-28T21:47:59.138Z,100.00
2022-12-28T21:50:26.947Z,100.00
2022-12-28T21:52:54.854Z,100.00
2022-12-28T21:55:40.289Z,100.00
2022-12-28T21:58:09.847Z,100.00
2022-12-28T22:00:55.485Z,100.00
2022-12-28T22:03:43.571Z,100.00
2022-12-28T22:06:12.843Z,100.00
2022-12-28T22:08:58.371Z,100.00
2022-12-28T22:11:43.753Z,100.00
2022-12-28T22:14:13.047Z,100.00
2022-12-28T22:16:40.965Z,100.00
2022-12-28T22:19:08.807Z,100.00
2022-12-28T22:21:37.129Z,100.00
2022-12-28T22:24:05.256Z,100.00
2022-12-28T22:26:33.065Z,100.00
2022-12-28T22:29:03.653Z,100.00
2022-12-28T22:31:33.011Z,100.00
2022-12-28T22:34:06.838Z,100.00
2022-12-28T22:36:35.571Z,100.00
2022-12-28T22:39:03.391Z,100.00
2022-12-28T22:41:31.210Z,100.00
2022-12-28T22:43:59.159Z,100.00
2022-12-28T22:46:27.009Z,100.00
2022-12-28T22:48:56.214Z,100.00
2022-12-28T22:51:24.261Z,100.00
2022-12-28T22:53:52.108Z,100.00
2022-12-28T22:56:21.068Z,100.00
2022-12-28T22:58:49.419Z,100.00
2022-12-28T23:01:19.838Z,100.00
2022-12-28T23:03:49.233Z,100.00
2022-12-28T23:06:20.314Z,100.00
2022-12-28T23:08:48.524Z,100.00
2022-12-28T23:11:34.644Z,100.00
2022-12-28T23:14:23.486Z,100.00
2022-12-28T23:16:50.638Z,100.00
2022-12-28T23:19:36.298Z,100.00
2022-12-28T23:22:25.101Z,100.00
2022-12-28T23:25:10.209Z,100.00
2022-12-28T23:27:40.504Z,100.00
2022-12-28T23:30:12.095Z,100.00
2022-12-28T23:32:40.034Z,100.00
2022-12-28T23:35:08.305Z,100.00
2022-12-28T23:37:37.612Z,100.00
2022-12-28T23:40:06.042Z,100.00
2022-12-28T23:42:33.951Z,100.00
2022-12-28T23:45:01.928Z,100.00
2022-12-28T23:47:30.482Z,100.00
2022-12-28T23:49:58.678Z,100.00
2022-12-28T23:52:26.771Z,100.00
2022-12-28T23:54:56.033Z,100.00
2022-12-28T23:57:24.277Z,100.00
2022-12-28T23:59:52.403Z,100.00
